Ozernaja, Russia
Current Conditions -  °F | °C
As of 2:00 AM on Tuesday 25 Nov 2014 (Local Time) from UHPP Reporting Station
Clear Clear  
Wind Chill:   Ceiling: Unl
Heat Index: 21°   Visibility: 6mi
Dew Point:   Wind: 13mph
Humidity: 46%   Direction: 360°N
Pressure: 29.41"   Gusts: NA
Location:  51.48°N, 156.48°E
Report Text: UHPP 241400Z 36006MPS 9999 NSC M06/M16 Q0996 NOSIG RMKQFE743/0991 SC070
Loading
Personal Weather Stations






























Interactive Weather Map New forecast layout! Learn more

10-Day Weather Forecast

Advertisements
Track Severe Weather on mobile